Terminal Aerodrome Forecast
Issued by NWS

Home | Current Version | Previous Version | Text Only | Print | Product List | Glossary On
Versions: 1 2 3 4 5 6 7 8 9 10 11 12 13 14 15 16 17 18 19
000
FTUS41 KGYX 172320
TAFAUG
TAF
KAUG 172320Z 1800/1824 01004KT 3SM -SN BR BKN030 OVC070
      TEMPO 1800/1802 1 1/2SM -SN BR SCT020 BKN035 OVC050
     FM180200 VRB03KT P6SM BKN040 BKN070
     FM180700 00000KT P6SM SCT050 SCT080
     FM181400 32006KT P6SM SCT250=

USA.gov is the U.S. government's official web portal to all federal, state and local government web resources and services.